Terminal Aerodrome Forecast
Issued by NWS Omaha/Valley, NE

Home | Current Version | Previous Version | Graphics & Text | Print | Product List | Glossary On
Versions: 1 2 3 4 5 6 7 8 9 10 11 12 13 14 15 16 17 18 19 20 21 22 23 24 25 26 27 28 29 30 31 32 33 34 35
000
FTUS43 KOAX 291721
TAFOFK
TAF
KOFK 291721Z 2918/3018 33028G38KT P6SM OVC025
     FM292000 33024G33KT P6SM FEW030
     FM300000 32009KT P6SM SKC
     FM300400 VRB05KT P6SM SKC
     FM301500 24016G23KT P6SM SKC=

USA.gov is the U.S. government's official web portal to all federal, state and local government web resources and services.